Placerville, CA (95667)

6:50 PM PDT en Octubre 25, 2014 (GMT -0700)
Ladera Lane | Change Station
CLOSE
Current Station
Estación meteorológica personal
Location: Placerville, CA
Altura: 2090 ft
Estaciones meteorológicas cercanas

Alt 2090 ft 38.74 °N, 120.78 °W | Updated 23 seconds ago

Mostly Cloudy
Muy nublado
54.1 ° F
Sensación térmica 54.1 ° F
N
0.0
Viento Variable Viento desde Oeste
Gusts 0.0 mph

Hoy
Alta -- | Baja -- ° F
--% Posibilidad de precipitaciones
Ayer
Alta -- | Baja -- ° F
Precip. -- pul
7:22 AM 6:11 PM
Creciente, 5% visible
Presión 30.12 pul
Visibilidad 10.0 Millas
Nubes Baja 4400 ft
Nubes dispersas 5500 ft
Muy nublado 6500 ft
Punto de rocío 51 ° F
Humedad 88%
Precipitaciones 0.93 pul
Espesor de la nieve No disponible.
UV 0 de una escala de 12
Polen 2.40 de una escala de 12
Calidad del aire No disponible.
Flu Activity No disponible.
METAR KPVF 260135Z AUTO 13005KT 10SM FEW044 SCT055 BKN065 12/09 A3012 RMK AO1

More Conditions Fewer Conditions

Presión 30.12 pul
Visibilidad 10.0 Millas
Nubes Baja 4400 ft
Nubes dispersas 5500 ft
Muy nublado 6500 ft
Punto de rocío 51 ° F
Humedad 88%
Precipitaciones 0.93 pul
Espesor de la nieve No disponible.
UV 0 de una escala de 12
Polen 2.40 de una escala de 12
Calidad del aire No disponible.
Flu Activity No disponible.
METAR KPVF 260135Z AUTO 13005KT 10SM FEW044 SCT055 BKN065 12/09 A3012 RMK AO1

More Conditions Fewer Conditions

10-Day Weather Forecast

Almanac

Astronomía

Oct. 25, 2014 Salida Puesta
Hora real 7:22 AM PDT 6:11 PM PDT
Crepúsculo civil 6:55 AM PDT 6:38 PM PDT
Crepúsculo náutico 6:24 AM PDT 7:09 PM PDT
Crepúsculo astronómico 5:53 AM PDT 7:40 PM PDT
Luna 9:05 AM PDT (10/25) 7:39 PM PDT (10/25)
Horas de luz 11h 42m
Horas de luz
10h 48m
Tomorrow will be 2m 19s shorter.
Creciente, 5% of the Moon is Illuminated
Hoy
Creciente
Oct 30
Cuarto creciente
Nov 6
Luna llena
Nov 14
Cuarto menguante
Nov 22
Nueva

Extremos de hoy

Máximos del estado Bajos del estado

Community

WunderPhotos

Upload Photos

1,765,071 ¡fotos cargadas!

Nearby

Grosos de nieve

Estación Profundido Altura
Echo Peak 2 in 7800 ft
Rubicon #2 1 in 7500 ft
Fallen Leaf 0 in 6300 ft
Squaw Valley 2 in 8200 ft
Carson Pass 0 in 8500 ft

Actividad de terremotos

Ciudad Distance Mag. Tiempo y dato
Antioch, California 72 Millas 2.7 6:42 AM PDT
2014-10-25
Deer Park, California 91 Millas 2.8 6:40 AM PDT
2014-10-25
Gerlach-Empire, Nevada 121 Millas 2.5 7:16 AM PDT
2014-10-23
Magnitud mínima muestra es 2,5.

Temperaturas de aguas costeras

Lugar Temperatura
Sin partes meteorológicos de las estaciones

Estaciones meteorológicas cercanas